sensor_id;sensor_type;location;lat;lon;timestamp;P1;durP1;ratioP1;P2;durP2;ratioP2
41755;SDS011;27435;48.480;9.258;2023-07-20T00:02:23;5.82;;;1.20;;
41755;SDS011;27435;48.480;9.258;2023-07-20T00:04:48;5.65;;;1.20;;
41755;SDS011;27435;48.480;9.258;2023-07-20T00:07:14;2.90;;;1.38;;
41755;SDS011;27435;48.480;9.258;2023-07-20T00:09:40;5.57;;;1.52;;
41755;SDS011;27435;48.480;9.258;2023-07-20T00:12:05;8.20;;;1.90;;
41755;SDS011;27435;48.480;9.258;2023-07-20T00:14:31;6.80;;;1.40;;
41755;SDS011;27435;48.480;9.258;2023-07-20T00:16:57;3.80;;;1.80;;
41755;SDS011;27435;48.480;9.258;2023-07-20T00:19:26;4.97;;;1.58;;
41755;SDS011;27435;48.480;9.258;2023-07-20T00:21:52;5.95;;;2.13;;
41755;SDS011;27435;48.480;9.258;2023-07-20T00:24:19;4.32;;;2.00;;
41755;SDS011;27435;48.480;9.258;2023-07-20T00:26:45;5.32;;;1.88;;
41755;SDS011;27435;48.480;9.258;2023-07-20T00:29:11;3.97;;;1.30;;
41755;SDS011;27435;48.480;9.258;2023-07-20T00:31:36;4.60;;;1.48;;
41755;SDS011;27435;48.480;9.258;2023-07-20T00:34:02;10.43;;;1.95;;
41755;SDS011;27435;48.480;9.258;2023-07-20T00:36:29;6.30;;;1.60;;
41755;SDS011;27435;48.480;9.258;2023-07-20T00:38:55;9.75;;;1.90;;
41755;SDS011;27435;48.480;9.258;2023-07-20T00:41:20;7.05;;;1.48;;
41755;SDS011;27435;48.480;9.258;2023-07-20T00:43:46;7.05;;;1.55;;
41755;SDS011;27435;48.480;9.258;2023-07-20T00:46:12;4.30;;;2.38;;
41755;SDS011;27435;48.480;9.258;2023-07-20T00:48:38;3.15;;;1.50;;
41755;SDS011;27435;48.480;9.258;2023-07-20T00:51:04;6.22;;;1.70;;
41755;SDS011;27435;48.480;9.258;2023-07-20T00:53:30;8.07;;;1.50;;
41755;SDS011;27435;48.480;9.258;2023-07-20T00:55:56;8.30;;;1.60;;
41755;SDS011;27435;48.480;9.258;2023-07-20T00:58:22;5.05;;;1.40;;
41755;SDS011;27435;48.480;9.258;2023-07-20T01:00:49;6.82;;;2.33;;
41755;SDS011;27435;48.480;9.258;2023-07-20T01:03:15;4.35;;;1.70;;
41755;SDS011;27435;48.480;9.258;2023-07-20T01:05:42;5.93;;;1.75;;
41755;SDS011;27435;48.480;9.258;2023-07-20T01:11:22;5.93;;;1.90;;
41755;SDS011;27435;48.480;9.258;2023-07-20T01:14:12;3.22;;;1.50;;
41755;SDS011;27435;48.480;9.258;2023-07-20T01:16:40;2.88;;;1.45;;
41755;SDS011;27435;48.480;9.258;2023-07-20T01:19:05;4.10;;;1.70;;
41755;SDS011;27435;48.480;9.258;2023-07-20T01:21:34;4.22;;;1.92;;
41755;SDS011;27435;48.480;9.258;2023-07-20T01:31:55;9.23;;;2.92;;
41755;SDS011;27435;48.480;9.258;2023-07-20T01:34:22;3.70;;;1.52;;
41755;SDS011;27435;48.480;9.258;2023-07-20T01:36:49;6.07;;;2.05;;
41755;SDS011;27435;48.480;9.258;2023-07-20T01:39:17;4.63;;;1.80;;
41755;SDS011;27435;48.480;9.258;2023-07-20T01:41:44;4.97;;;2.00;;
41755;SDS011;27435;48.480;9.258;2023-07-20T01:44:10;6.28;;;1.92;;
41755;SDS011;27435;48.480;9.258;2023-07-20T01:46:37;8.15;;;1.77;;
41755;SDS011;27435;48.480;9.258;2023-07-20T01:49:03;4.40;;;2.03;;
41755;SDS011;27435;48.480;9.258;2023-07-20T01:51:28;5.60;;;2.00;;
41755;SDS011;27435;48.480;9.258;2023-07-20T01:53:54;12.68;;;2.22;;
41755;SDS011;27435;48.480;9.258;2023-07-20T01:56:20;5.38;;;2.00;;
41755;SDS011;27435;48.480;9.258;2023-07-20T01:58:46;5.05;;;1.90;;
41755;SDS011;27435;48.480;9.258;2023-07-20T02:01:11;4.82;;;2.78;;
41755;SDS011;27435;48.480;9.258;2023-07-20T02:03:37;3.80;;;1.83;;
41755;SDS011;27435;48.480;9.258;2023-07-20T02:06:02;7.32;;;2.15;;
41755;SDS011;27435;48.480;9.258;2023-07-20T02:08:28;7.00;;;2.03;;
41755;SDS011;27435;48.480;9.258;2023-07-20T02:10:53;4.60;;;1.98;;
41755;SDS011;27435;48.480;9.258;2023-07-20T02:13:19;3.97;;;1.70;;
41755;SDS011;27435;48.480;9.258;2023-07-20T02:15:45;9.40;;;2.78;;
41755;SDS011;27435;48.480;9.258;2023-07-20T02:18:12;6.93;;;2.28;;
41755;SDS011;27435;48.480;9.258;2023-07-20T02:20:37;6.13;;;1.95;;
41755;SDS011;27435;48.480;9.258;2023-07-20T02:23:05;4.53;;;1.70;;
41755;SDS011;27435;48.480;9.258;2023-07-20T02:25:30;4.45;;;1.80;;
41755;SDS011;27435;48.480;9.258;2023-07-20T02:27:56;2.80;;;1.77;;
41755;SDS011;27435;48.480;9.258;2023-07-20T02:30:23;4.75;;;2.20;;
41755;SDS011;27435;48.480;9.258;2023-07-20T02:32:48;6.80;;;1.85;;
41755;SDS011;27435;48.480;9.258;2023-07-20T02:35:14;8.32;;;2.47;;
41755;SDS011;27435;48.480;9.258;2023-07-20T02:37:40;4.40;;;1.92;;
41755;SDS011;27435;48.480;9.258;2023-07-20T02:40:06;6.32;;;2.05;;
41755;SDS011;27435;48.480;9.258;2023-07-20T02:42:32;3.95;;;1.98;;
41755;SDS011;27435;48.480;9.258;2023-07-20T02:44:58;3.13;;;1.67;;
41755;SDS011;27435;48.480;9.258;2023-07-20T02:47:24;5.82;;;2.92;;
41755;SDS011;27435;48.480;9.258;2023-07-20T02:49:50;7.40;;;2.25;;
41755;SDS011;27435;48.480;9.258;2023-07-20T02:52:15;4.28;;;2.00;;
41755;SDS011;27435;48.480;9.258;2023-07-20T02:54:41;5.90;;;2.00;;
41755;SDS011;27435;48.480;9.258;2023-07-20T02:57:07;4.18;;;1.65;;
41755;SDS011;27435;48.480;9.258;2023-07-20T02:59:32;7.18;;;2.00;;
41755;SDS011;27435;48.480;9.258;2023-07-20T03:01:58;3.30;;;2.20;;
41755;SDS011;27435;48.480;9.258;2023-07-20T03:04:26;3.38;;;2.08;;
41755;SDS011;27435;48.480;9.258;2023-07-20T03:06:52;9.52;;;2.28;;
41755;SDS011;27435;48.480;9.258;2023-07-20T03:09:18;6.40;;;2.30;;
41755;SDS011;27435;48.480;9.258;2023-07-20T03:11:44;6.70;;;2.05;;
41755;SDS011;27435;48.480;9.258;2023-07-20T03:14:09;4.75;;;2.10;;
41755;SDS011;27435;48.480;9.258;2023-07-20T03:16:35;5.65;;;1.80;;
41755;SDS011;27435;48.480;9.258;2023-07-20T03:19:01;7.70;;;2.13;;
41755;SDS011;27435;48.480;9.258;2023-07-20T03:21:27;7.03;;;2.47;;
41755;SDS011;27435;48.480;9.258;2023-07-20T03:23:53;3.38;;;1.83;;
41755;SDS011;27435;48.480;9.258;2023-07-20T03:26:19;4.53;;;1.70;;
41755;SDS011;27435;48.480;9.258;2023-07-20T03:28:45;5.22;;;2.25;;
41755;SDS011;27435;48.480;9.258;2023-07-20T03:31:10;5.25;;;1.77;;
41755;SDS011;27435;48.480;9.258;2023-07-20T03:33:36;8.48;;;2.25;;
41755;SDS011;27435;48.480;9.258;2023-07-20T03:36:02;4.50;;;2.00;;
41755;SDS011;27435;48.480;9.258;2023-07-20T03:38:28;5.05;;;1.90;;
41755;SDS011;27435;48.480;9.258;2023-07-20T03:43:23;9.27;;;2.22;;
41755;SDS011;27435;48.480;9.258;2023-07-20T03:45:50;5.22;;;1.73;;
41755;SDS011;27435;48.480;9.258;2023-07-20T03:48:17;6.90;;;2.20;;
41755;SDS011;27435;48.480;9.258;2023-07-20T03:50:48;6.85;;;2.30;;
41755;SDS011;27435;48.480;9.258;2023-07-20T03:53:16;4.45;;;1.75;;
41755;SDS011;27435;48.480;9.258;2023-07-20T03:55:48;5.63;;;1.88;;
41755;SDS011;27435;48.480;9.258;2023-07-20T03:58:15;6.22;;;2.15;;
41755;SDS011;27435;48.480;9.258;2023-07-20T04:01:00;4.05;;;1.85;;
41755;SDS011;27435;48.480;9.258;2023-07-20T04:03:26;6.28;;;2.17;;
41755;SDS011;27435;48.480;9.258;2023-07-20T04:05:53;5.85;;;1.67;;
41755;SDS011;27435;48.480;9.258;2023-07-20T04:08:20;5.68;;;2.08;;
41755;SDS011;27435;48.480;9.258;2023-07-20T04:10:47;4.32;;;1.85;;
41755;SDS011;27435;48.480;9.258;2023-07-20T04:13:13;5.55;;;1.73;;
41755;SDS011;27435;48.480;9.258;2023-07-20T04:15:38;5.93;;;2.85;;
41755;SDS011;27435;48.480;9.258;2023-07-20T04:18:04;8.95;;;2.90;;
41755;SDS011;27435;48.480;9.258;2023-07-20T04:20:30;4.93;;;1.77;;
41755;SDS011;27435;48.480;9.258;2023-07-20T04:22:55;6.45;;;2.22;;
41755;SDS011;27435;48.480;9.258;2023-07-20T04:25:21;6.93;;;1.83;;
41755;SDS011;27435;48.480;9.258;2023-07-20T04:27:47;6.82;;;1.85;;
41755;SDS011;27435;48.480;9.258;2023-07-20T04:30:12;4.47;;;1.95;;
41755;SDS011;27435;48.480;9.258;2023-07-20T04:32:39;8.70;;;1.92;;
41755;SDS011;27435;48.480;9.258;2023-07-20T04:35:09;5.63;;;1.65;;
41755;SDS011;27435;48.480;9.258;2023-07-20T04:37:34;5.75;;;2.30;;
41755;SDS011;27435;48.480;9.258;2023-07-20T04:40:00;7.60;;;2.33;;
41755;SDS011;27435;48.480;9.258;2023-07-20T04:42:26;5.28;;;2.00;;
41755;SDS011;27435;48.480;9.258;2023-07-20T04:44:51;4.70;;;1.60;;
41755;SDS011;27435;48.480;9.258;2023-07-20T04:47:17;5.15;;;2.55;;
41755;SDS011;27435;48.480;9.258;2023-07-20T04:49:42;4.97;;;1.80;;
41755;SDS011;27435;48.480;9.258;2023-07-20T04:52:08;3.78;;;1.55;;
41755;SDS011;27435;48.480;9.258;2023-07-20T04:54:34;3.72;;;1.92;;
41755;SDS011;27435;48.480;9.258;2023-07-20T04:56:59;7.80;;;1.77;;
41755;SDS011;27435;48.480;9.258;2023-07-20T04:59:25;6.45;;;1.98;;
41755;SDS011;27435;48.480;9.258;2023-07-20T05:01:51;5.72;;;2.17;;
41755;SDS011;27435;48.480;9.258;2023-07-20T05:04:16;7.93;;;2.40;;
41755;SDS011;27435;48.480;9.258;2023-07-20T05:06:42;7.43;;;2.40;;
41755;SDS011;27435;48.480;9.258;2023-07-20T05:09:08;3.63;;;2.00;;
41755;SDS011;27435;48.480;9.258;2023-07-20T05:11:34;4.03;;;1.63;;
41755;SDS011;27435;48.480;9.258;2023-07-20T05:14:00;3.38;;;1.83;;
41755;SDS011;27435;48.480;9.258;2023-07-20T05:16:25;2.80;;;1.50;;
41755;SDS011;27435;48.480;9.258;2023-07-20T05:18:51;7.22;;;2.08;;
41755;SDS011;27435;48.480;9.258;2023-07-20T05:21:17;4.85;;;2.15;;
41755;SDS011;27435;48.480;9.258;2023-07-20T05:23:42;12.45;;;2.40;;
41755;SDS011;27435;48.480;9.258;2023-07-20T05:26:08;15.82;;;2.88;;
41755;SDS011;27435;48.480;9.258;2023-07-20T05:28:34;7.05;;;1.90;;
41755;SDS011;27435;48.480;9.258;2023-07-20T05:31:02;10.02;;;1.90;;
41755;SDS011;27435;48.480;9.258;2023-07-20T05:33:28;12.65;;;2.08;;
41755;SDS011;27435;48.480;9.258;2023-07-20T05:35:54;5.00;;;2.50;;
41755;SDS011;27435;48.480;9.258;2023-07-20T05:38:19;7.55;;;2.55;;
41755;SDS011;27435;48.480;9.258;2023-07-20T05:40:45;4.68;;;1.88;;
41755;SDS011;27435;48.480;9.258;2023-07-20T05:43:11;4.43;;;1.95;;
41755;SDS011;27435;48.480;9.258;2023-07-20T05:45:37;6.93;;;2.05;;
41755;SDS011;27435;48.480;9.258;2023-07-20T05:48:07;4.57;;;1.88;;
41755;SDS011;27435;48.480;9.258;2023-07-20T05:50:36;6.88;;;1.70;;
41755;SDS011;27435;48.480;9.258;2023-07-20T05:53:11;3.15;;;1.92;;
41755;SDS011;27435;48.480;9.258;2023-07-20T05:55:36;5.93;;;1.52;;
41755;SDS011;27435;48.480;9.258;2023-07-20T05:58:02;8.63;;;2.10;;
41755;SDS011;27435;48.480;9.258;2023-07-20T06:00:29;4.63;;;1.65;;
41755;SDS011;27435;48.480;9.258;2023-07-20T06:02:54;5.72;;;1.80;;
41755;SDS011;27435;48.480;9.258;2023-07-20T06:05:21;12.60;;;2.15;;
41755;SDS011;27435;48.480;9.258;2023-07-20T06:07:48;4.75;;;1.60;;
41755;SDS011;27435;48.480;9.258;2023-07-20T06:10:14;3.67;;;1.80;;
41755;SDS011;27435;48.480;9.258;2023-07-20T06:12:40;3.53;;;1.73;;
41755;SDS011;27435;48.480;9.258;2023-07-20T06:15:09;3.80;;;1.50;;
41755;SDS011;27435;48.480;9.258;2023-07-20T06:17:50;4.70;;;1.63;;
41755;SDS011;27435;48.480;9.258;2023-07-20T06:20:16;6.18;;;1.60;;
41755;SDS011;27435;48.480;9.258;2023-07-20T06:22:42;3.35;;;1.45;;
41755;SDS011;27435;48.480;9.258;2023-07-20T06:25:09;4.53;;;1.10;;
41755;SDS011;27435;48.480;9.258;2023-07-20T06:27:35;5.20;;;2.35;;
41755;SDS011;27435;48.480;9.258;2023-07-20T06:30:01;7.95;;;2.10;;
41755;SDS011;27435;48.480;9.258;2023-07-20T06:32:27;6.50;;;1.60;;
41755;SDS011;27435;48.480;9.258;2023-07-20T06:34:52;6.00;;;1.42;;
41755;SDS011;27435;48.480;9.258;2023-07-20T06:37:18;5.28;;;1.63;;
41755;SDS011;27435;48.480;9.258;2023-07-20T06:39:45;4.07;;;1.75;;
41755;SDS011;27435;48.480;9.258;2023-07-20T06:42:11;4.80;;;1.52;;
41755;SDS011;27435;48.480;9.258;2023-07-20T06:44:36;7.05;;;2.05;;
41755;SDS011;27435;48.480;9.258;2023-07-20T06:47:02;6.63;;;1.85;;
41755;SDS011;27435;48.480;9.258;2023-07-20T06:49:28;3.75;;;1.30;;
41755;SDS011;27435;48.480;9.258;2023-07-20T06:51:54;3.78;;;1.50;;
41755;SDS011;27435;48.480;9.258;2023-07-20T06:54:20;3.70;;;1.80;;
41755;SDS011;27435;48.480;9.258;2023-07-20T06:56:45;3.90;;;1.40;;
41755;SDS011;27435;48.480;9.258;2023-07-20T06:59:11;3.28;;;1.70;;
41755;SDS011;27435;48.480;9.258;2023-07-20T07:01:37;4.28;;;1.30;;
41755;SDS011;27435;48.480;9.258;2023-07-20T07:04:02;5.78;;;1.60;;
41755;SDS011;27435;48.480;9.258;2023-07-20T07:06:30;3.33;;;1.30;;
41755;SDS011;27435;48.480;9.258;2023-07-20T07:08:58;2.88;;;1.45;;
41755;SDS011;27435;48.480;9.258;2023-07-20T07:11:23;3.85;;;1.52;;
41755;SDS011;27435;48.480;9.258;2023-07-20T07:13:49;3.90;;;1.50;;
41755;SDS011;27435;48.480;9.258;2023-07-20T07:16:16;3.38;;;1.58;;
41755;SDS011;27435;48.480;9.258;2023-07-20T07:18:44;5.65;;;1.50;;
41755;SDS011;27435;48.480;9.258;2023-07-20T07:21:11;3.40;;;1.40;;
41755;SDS011;27435;48.480;9.258;2023-07-20T07:23:37;4.45;;;2.00;;
41755;SDS011;27435;48.480;9.258;2023-07-20T07:26:04;4.05;;;1.23;;
41755;SDS011;27435;48.480;9.258;2023-07-20T07:28:29;3.90;;;1.55;;
41755;SDS011;27435;48.480;9.258;2023-07-20T07:30:55;5.72;;;1.73;;
41755;SDS011;27435;48.480;9.258;2023-07-20T07:33:22;5.03;;;1.73;;
41755;SDS011;27435;48.480;9.258;2023-07-20T07:35:47;5.28;;;1.65;;
41755;SDS011;27435;48.480;9.258;2023-07-20T07:38:14;5.00;;;1.50;;
41755;SDS011;27435;48.480;9.258;2023-07-20T07:40:39;5.13;;;1.60;;
41755;SDS011;27435;48.480;9.258;2023-07-20T07:43:05;6.78;;;2.17;;
41755;SDS011;27435;48.480;9.258;2023-07-20T07:45:33;4.80;;;1.73;;
41755;SDS011;27435;48.480;9.258;2023-07-20T07:48:00;6.40;;;1.52;;
41755;SDS011;27435;48.480;9.258;2023-07-20T07:50:27;4.00;;;2.05;;
41755;SDS011;27435;48.480;9.258;2023-07-20T07:52:53;6.53;;;1.80;;
41755;SDS011;27435;48.480;9.258;2023-07-20T07:55:19;5.90;;;2.03;;
41755;SDS011;27435;48.480;9.258;2023-07-20T07:57:44;7.32;;;1.88;;
41755;SDS011;27435;48.480;9.258;2023-07-20T08:00:12;7.03;;;1.95;;
41755;SDS011;27435;48.480;9.258;2023-07-20T08:02:40;7.60;;;2.10;;
41755;SDS011;27435;48.480;9.258;2023-07-20T08:05:07;5.70;;;2.15;;
41755;SDS011;27435;48.480;9.258;2023-07-20T08:07:33;6.25;;;2.17;;
41755;SDS011;27435;48.480;9.258;2023-07-20T08:09:58;4.95;;;1.90;;
41755;SDS011;27435;48.480;9.258;2023-07-20T08:12:25;9.82;;;2.05;;
41755;SDS011;27435;48.480;9.258;2023-07-20T08:14:51;6.50;;;1.90;;
41755;SDS011;27435;48.480;9.258;2023-07-20T08:17:17;8.85;;;1.90;;
41755;SDS011;27435;48.480;9.258;2023-07-20T08:19:42;10.98;;;2.33;;
41755;SDS011;27435;48.480;9.258;2023-07-20T08:22:09;5.43;;;2.03;;
41755;SDS011;27435;48.480;9.258;2023-07-20T08:24:35;6.15;;;1.98;;
41755;SDS011;27435;48.480;9.258;2023-07-20T08:27:04;5.38;;;2.05;;
41755;SDS011;27435;48.480;9.258;2023-07-20T08:29:30;6.22;;;1.98;;
41755;SDS011;27435;48.480;9.258;2023-07-20T08:31:55;5.80;;;2.15;;
41755;SDS011;27435;48.480;9.258;2023-07-20T08:34:21;4.22;;;2.10;;
41755;SDS011;27435;48.480;9.258;2023-07-20T08:36:46;2.75;;;1.50;;
41755;SDS011;27435;48.480;9.258;2023-07-20T08:39:12;4.30;;;1.27;;
41755;SDS011;27435;48.480;9.258;2023-07-20T08:41:38;3.72;;;1.65;;
41755;SDS011;27435;48.480;9.258;2023-07-20T08:44:04;3.80;;;1.63;;
41755;SDS011;27435;48.480;9.258;2023-07-20T08:46:30;9.82;;;1.70;;
41755;SDS011;27435;48.480;9.258;2023-07-20T08:48:56;4.20;;;1.48;;
41755;SDS011;27435;48.480;9.258;2023-07-20T08:51:23;5.28;;;1.80;;
41755;SDS011;27435;48.480;9.258;2023-07-20T08:53:49;4.90;;;1.70;;
41755;SDS011;27435;48.480;9.258;2023-07-20T08:56:16;2.97;;;1.60;;
41755;SDS011;27435;48.480;9.258;2023-07-20T08:58:44;5.70;;;1.58;;
41755;SDS011;27435;48.480;9.258;2023-07-20T09:01:11;5.63;;;2.17;;
41755;SDS011;27435;48.480;9.258;2023-07-20T09:03:37;8.50;;;2.47;;
41755;SDS011;27435;48.480;9.258;2023-07-20T09:06:04;6.85;;;2.00;;
41755;SDS011;27435;48.480;9.258;2023-07-20T09:08:30;4.60;;;1.60;;
41755;SDS011;27435;48.480;9.258;2023-07-20T09:10:56;8.63;;;1.95;;
41755;SDS011;27435;48.480;9.258;2023-07-20T09:13:24;3.75;;;1.77;;
41755;SDS011;27435;48.480;9.258;2023-07-20T09:15:53;4.70;;;1.55;;
41755;SDS011;27435;48.480;9.258;2023-07-20T09:18:23;2.47;;;1.55;;
41755;SDS011;27435;48.480;9.258;2023-07-20T09:20:53;4.82;;;1.92;;
41755;SDS011;27435;48.480;9.258;2023-07-20T09:23:34;4.18;;;1.70;;
41755;SDS011;27435;48.480;9.258;2023-07-20T09:26:12;3.78;;;1.58;;
41755;SDS011;27435;48.480;9.258;2023-07-20T09:28:48;6.10;;;1.83;;
41755;SDS011;27435;48.480;9.258;2023-07-20T09:31:21;5.50;;;1.80;;
41755;SDS011;27435;48.480;9.258;2023-07-20T09:33:47;6.13;;;1.95;;
41755;SDS011;27435;48.480;9.258;2023-07-20T09:36:14;3.75;;;1.42;;
41755;SDS011;27435;48.480;9.258;2023-07-20T09:38:41;5.32;;;1.55;;
41755;SDS011;27435;48.480;9.258;2023-07-20T09:41:07;5.68;;;1.73;;
41755;SDS011;27435;48.480;9.258;2023-07-20T09:43:34;2.80;;;1.60;;
41755;SDS011;27435;48.480;9.258;2023-07-20T09:45:59;4.65;;;1.80;;
41755;SDS011;27435;48.480;9.258;2023-07-20T09:48:25;5.05;;;1.70;;
41755;SDS011;27435;48.480;9.258;2023-07-20T09:50:51;3.72;;;1.30;;
41755;SDS011;27435;48.480;9.258;2023-07-20T09:53:18;3.75;;;1.30;;
41755;SDS011;27435;48.480;9.258;2023-07-20T09:55:45;3.97;;;1.70;;
41755;SDS011;27435;48.480;9.258;2023-07-20T09:58:15;3.85;;;1.48;;
41755;SDS011;27435;48.480;9.258;2023-07-20T10:00:41;2.40;;;1.40;;
41755;SDS011;27435;48.480;9.258;2023-07-20T10:03:13;4.72;;;1.27;;
41755;SDS011;27435;48.480;9.258;2023-07-20T10:05:43;3.63;;;1.10;;
41755;SDS011;27435;48.480;9.258;2023-07-20T10:08:27;1.88;;;1.17;;
41755;SDS011;27435;48.480;9.258;2023-07-20T10:10:55;6.20;;;1.42;;
41755;SDS011;27435;48.480;9.258;2023-07-20T10:13:29;4.35;;;1.30;;
41755;SDS011;27435;48.480;9.258;2023-07-20T10:15:59;3.42;;;1.40;;
41755;SDS011;27435;48.480;9.258;2023-07-20T10:18:34;5.22;;;1.20;;
41755;SDS011;27435;48.480;9.258;2023-07-20T10:21:26;1.98;;;0.75;;
41755;SDS011;27435;48.480;9.258;2023-07-20T10:23:54;3.15;;;1.52;;
41755;SDS011;27435;48.480;9.258;2023-07-20T10:26:21;3.45;;;1.25;;
41755;SDS011;27435;48.480;9.258;2023-07-20T10:28:46;4.88;;;2.00;;
41755;SDS011;27435;48.480;9.258;2023-07-20T10:31:12;4.93;;;1.80;;
41755;SDS011;27435;48.480;9.258;2023-07-20T10:33:40;5.45;;;1.50;;
41755;SDS011;27435;48.480;9.258;2023-07-20T10:36:07;6.38;;;1.60;;
41755;SDS011;27435;48.480;9.258;2023-07-20T10:38:42;3.45;;;1.50;;
41755;SDS011;27435;48.480;9.258;2023-07-20T10:41:22;3.47;;;1.40;;
41755;SDS011;27435;48.480;9.258;2023-07-20T10:43:58;3.17;;;1.85;;
41755;SDS011;27435;48.480;9.258;2023-07-20T10:49:04;4.85;;;1.60;;
41755;SDS011;27435;48.480;9.258;2023-07-20T10:51:47;4.72;;;1.17;;
41755;SDS011;27435;48.480;9.258;2023-07-20T10:56:43;4.65;;;1.10;;
41755;SDS011;27435;48.480;9.258;2023-07-20T10:59:19;7.22;;;1.38;;
41755;SDS011;27435;48.480;9.258;2023-07-20T11:02:05;2.33;;;1.05;;
41755;SDS011;27435;48.480;9.258;2023-07-20T11:04:42;2.58;;;1.05;;
41755;SDS011;27435;48.480;9.258;2023-07-20T11:07:08;5.00;;;1.27;;
41755;SDS011;27435;48.480;9.258;2023-07-20T11:09:35;6.15;;;1.20;;
41755;SDS011;27435;48.480;9.258;2023-07-20T11:12:14;4.10;;;1.00;;
41755;SDS011;27435;48.480;9.258;2023-07-20T11:14:42;2.50;;;1.45;;
41755;SDS011;27435;48.480;9.258;2023-07-20T11:17:12;3.13;;;1.20;;
41755;SDS011;27435;48.480;9.258;2023-07-20T11:19:39;2.30;;;1.02;;
41755;SDS011;27435;48.480;9.258;2023-07-20T11:22:08;5.32;;;1.10;;
41755;SDS011;27435;48.480;9.258;2023-07-20T11:24:34;2.92;;;1.30;;
41755;SDS011;27435;48.480;9.258;2023-07-20T11:27:03;3.55;;;1.42;;
41755;SDS011;27435;48.480;9.258;2023-07-20T11:29:29;3.88;;;1.23;;
41755;SDS011;27435;48.480;9.258;2023-07-20T11:31:55;9.00;;;1.27;;
41755;SDS011;27435;48.480;9.258;2023-07-20T11:34:22;2.63;;;0.88;;
41755;SDS011;27435;48.480;9.258;2023-07-20T11:36:48;4.85;;;1.20;;
41755;SDS011;27435;48.480;9.258;2023-07-20T11:39:15;3.92;;;1.60;;
41755;SDS011;27435;48.480;9.258;2023-07-20T11:41:54;2.97;;;1.10;;
41755;SDS011;27435;48.480;9.258;2023-07-20T11:44:21;5.20;;;1.50;;
41755;SDS011;27435;48.480;9.258;2023-07-20T11:46:59;2.72;;;1.27;;
41755;SDS011;27435;48.480;9.258;2023-07-20T11:49:36;4.15;;;1.58;;
41755;SDS011;27435;48.480;9.258;2023-07-20T11:52:03;3.55;;;0.90;;
41755;SDS011;27435;48.480;9.258;2023-07-20T11:54:34;4.05;;;1.30;;
41755;SDS011;27435;48.480;9.258;2023-07-20T11:57:04;5.00;;;1.33;;
41755;SDS011;27435;48.480;9.258;2023-07-20T11:59:32;3.80;;;1.17;;
41755;SDS011;27435;48.480;9.258;2023-07-20T12:02:01;2.03;;;1.00;;
41755;SDS011;27435;48.480;9.258;2023-07-20T12:04:33;2.70;;;1.00;;
41755;SDS011;27435;48.480;9.258;2023-07-20T12:06:59;2.97;;;1.20;;
41755;SDS011;27435;48.480;9.258;2023-07-20T12:09:25;4.35;;;1.27;;
41755;SDS011;27435;48.480;9.258;2023-07-20T12:11:51;2.13;;;1.10;;
41755;SDS011;27435;48.480;9.258;2023-07-20T12:14:16;5.05;;;1.20;;
41755;SDS011;27435;48.480;9.258;2023-07-20T12:16:42;5.35;;;1.20;;
41755;SDS011;27435;48.480;9.258;2023-07-20T12:19:09;2.25;;;1.10;;
41755;SDS011;27435;48.480;9.258;2023-07-20T12:21:37;2.85;;;1.20;;
41755;SDS011;27435;48.480;9.258;2023-07-20T12:24:04;3.15;;;1.00;;
41755;SDS011;27435;48.480;9.258;2023-07-20T12:26:31;4.07;;;1.23;;
41755;SDS011;27435;48.480;9.258;2023-07-20T12:28:57;3.95;;;1.45;;
41755;SDS011;27435;48.480;9.258;2023-07-20T12:31:24;6.78;;;1.75;;
41755;SDS011;27435;48.480;9.258;2023-07-20T12:33:51;2.53;;;1.35;;
41755;SDS011;27435;48.480;9.258;2023-07-20T12:36:17;3.17;;;1.23;;
41755;SDS011;27435;48.480;9.258;2023-07-20T12:38:43;9.48;;;1.67;;
41755;SDS011;27435;48.480;9.258;2023-07-20T12:41:10;2.30;;;1.17;;
41755;SDS011;27435;48.480;9.258;2023-07-20T12:43:43;4.10;;;1.40;;
41755;SDS011;27435;48.480;9.258;2023-07-20T12:46:10;2.70;;;1.00;;
41755;SDS011;27435;48.480;9.258;2023-07-20T12:48:39;3.42;;;1.10;;
41755;SDS011;27435;48.480;9.258;2023-07-20T12:51:06;3.33;;;1.30;;
41755;SDS011;27435;48.480;9.258;2023-07-20T12:53:31;3.30;;;1.23;;
41755;SDS011;27435;48.480;9.258;2023-07-20T12:55:58;4.78;;;1.17;;
41755;SDS011;27435;48.480;9.258;2023-07-20T12:58:24;3.78;;;1.30;;
41755;SDS011;27435;48.480;9.258;2023-07-20T13:00:50;4.82;;;1.33;;
41755;SDS011;27435;48.480;9.258;2023-07-20T13:03:16;3.47;;;1.33;;
41755;SDS011;27435;48.480;9.258;2023-07-20T13:05:43;3.67;;;1.10;;
41755;SDS011;27435;48.480;9.258;2023-07-20T13:08:09;4.55;;;1.17;;
41755;SDS011;27435;48.480;9.258;2023-07-20T13:10:35;2.60;;;1.10;;
41755;SDS011;27435;48.480;9.258;2023-07-20T13:13:01;4.68;;;1.10;;
41755;SDS011;27435;48.480;9.258;2023-07-20T13:15:31;1.55;;;0.77;;
41755;SDS011;27435;48.480;9.258;2023-07-20T13:17:57;2.60;;;0.90;;
41755;SDS011;27435;48.480;9.258;2023-07-20T13:20:23;2.45;;;1.27;;
41755;SDS011;27435;48.480;9.258;2023-07-20T13:22:50;3.72;;;1.20;;
41755;SDS011;27435;48.480;9.258;2023-07-20T13:25:16;3.17;;;1.00;;
41755;SDS011;27435;48.480;9.258;2023-07-20T13:27:41;4.32;;;1.33;;
41755;SDS011;27435;48.480;9.258;2023-07-20T13:30:07;4.43;;;1.67;;
41755;SDS011;27435;48.480;9.258;2023-07-20T13:32:35;5.40;;;1.65;;
41755;SDS011;27435;48.480;9.258;2023-07-20T13:35:01;3.20;;;1.30;;
41755;SDS011;27435;48.480;9.258;2023-07-20T13:37:26;2.60;;;1.00;;
41755;SDS011;27435;48.480;9.258;2023-07-20T13:39:53;2.28;;;1.00;;
41755;SDS011;27435;48.480;9.258;2023-07-20T13:42:19;3.20;;;1.20;;
41755;SDS011;27435;48.480;9.258;2023-07-20T13:44:46;4.68;;;1.30;;
41755;SDS011;27435;48.480;9.258;2023-07-20T13:47:12;6.00;;;1.35;;
41755;SDS011;27435;48.480;9.258;2023-07-20T13:49:38;2.20;;;0.95;;
41755;SDS011;27435;48.480;9.258;2023-07-20T13:52:04;2.95;;;1.20;;
41755;SDS011;27435;48.480;9.258;2023-07-20T13:54:30;4.10;;;1.40;;
41755;SDS011;27435;48.480;9.258;2023-07-20T13:56:56;2.80;;;1.20;;
41755;SDS011;27435;48.480;9.258;2023-07-20T13:59:22;5.28;;;1.15;;
41755;SDS011;27435;48.480;9.258;2023-07-20T14:01:48;2.03;;;1.02;;
41755;SDS011;27435;48.480;9.258;2023-07-20T14:04:14;4.05;;;1.05;;
41755;SDS011;27435;48.480;9.258;2023-07-20T14:06:40;5.82;;;1.35;;
41755;SDS011;27435;48.480;9.258;2023-07-20T14:09:05;2.67;;;1.20;;
41755;SDS011;27435;48.480;9.258;2023-07-20T14:11:32;3.75;;;0.90;;
41755;SDS011;27435;48.480;9.258;2023-07-20T14:13:58;7.10;;;1.30;;
41755;SDS011;27435;48.480;9.258;2023-07-20T14:16:23;3.90;;;0.90;;
41755;SDS011;27435;48.480;9.258;2023-07-20T14:18:50;2.67;;;1.08;;
41755;SDS011;27435;48.480;9.258;2023-07-20T14:21:19;2.60;;;1.27;;
41755;SDS011;27435;48.480;9.258;2023-07-20T14:23:45;3.20;;;0.80;;
41755;SDS011;27435;48.480;9.258;2023-07-20T14:26:13;2.00;;;1.00;;
41755;SDS011;27435;48.480;9.258;2023-07-20T14:28:39;2.47;;;1.05;;
41755;SDS011;27435;48.480;9.258;2023-07-20T14:31:04;2.78;;;0.90;;
41755;SDS011;27435;48.480;9.258;2023-07-20T14:33:31;2.25;;;1.10;;
41755;SDS011;27435;48.480;9.258;2023-07-20T14:35:57;5.65;;;1.25;;
41755;SDS011;27435;48.480;9.258;2023-07-20T14:38:22;4.10;;;0.90;;
41755;SDS011;27435;48.480;9.258;2023-07-20T14:40:48;5.20;;;1.80;;
41755;SDS011;27435;48.480;9.258;2023-07-20T14:43:14;2.38;;;1.05;;
41755;SDS011;27435;48.480;9.258;2023-07-20T14:45:42;2.97;;;0.90;;
41755;SDS011;27435;48.480;9.258;2023-07-20T14:48:08;4.10;;;1.40;;
41755;SDS011;27435;48.480;9.258;2023-07-20T14:50:34;2.28;;;1.05;;
41755;SDS011;27435;48.480;9.258;2023-07-20T14:53:00;1.58;;;0.73;;
41755;SDS011;27435;48.480;9.258;2023-07-20T14:55:25;3.30;;;1.48;;
41755;SDS011;27435;48.480;9.258;2023-07-20T14:57:51;3.58;;;1.02;;
41755;SDS011;27435;48.480;9.258;2023-07-20T15:00:17;3.63;;;1.42;;
41755;SDS011;27435;48.480;9.258;2023-07-20T15:02:43;3.13;;;1.13;;
41755;SDS011;27435;48.480;9.258;2023-07-20T15:05:09;3.08;;;1.25;;
41755;SDS011;27435;48.480;9.258;2023-07-20T15:07:36;2.10;;;1.20;;